Time;durP1;ratioP1;P1;durP2;ratioP2;P2;SDS_P1;SDS_P2;PMS_P1;PMS_P2;Temp;Humidity;BMP_temperature;BMP_pressure;BME280_temperature;BME280_humidity;BME280_pressure;Samples;Min_cycle;Max_cycle;Signal;HPM_P1;HPM_P2
2021/11/28 00:00:13;;;;;;;26.83;12.48;;;4.50;99.90;;;;;;6237665;22;20012;-71
2021/11/28 00:02:39;;;;;;;27.63;12.55;;;4.50;99.90;;;;;;6241223;22;20031;-72
2021/11/28 00:05:06;;;;;;;25.92;11.85;;;4.50;99.90;;;;;;6239060;22;20008;-73
2021/11/28 00:13:08;;;;;;;24.77;11.27;;;4.50;99.90;;;;;;6238966;22;20027;-71
2021/11/28 00:15:34;;;;;;;33.00;12.80;;;4.60;99.90;;;;;;6241442;22;20036;-72
2021/11/28 00:17:59;;;;;;;32.15;13.85;;;4.60;99.90;;;;;;6238905;22;20078;-72
2021/11/28 00:20:25;;;;;;;27.52;13.40;;;4.50;99.90;;;;;;6239574;23;20012;-72
2021/11/28 00:22:51;;;;;;;25.15;11.75;;;4.50;99.90;;;;;;6241297;22;20087;-72
2021/11/28 00:25:19;;;;;;;28.35;12.30;;;4.60;99.90;;;;;;6238004;22;20016;-72
2021/11/28 00:27:46;;;;;;;27.92;12.75;;;4.50;99.90;;;;;;6239691;22;20012;-72
2021/11/28 00:30:16;;;;;;;28.73;13.13;;;4.50;99.90;;;;;;6237947;22;20008;-72
2021/11/28 00:32:42;;;;;;;31.27;12.07;;;4.60;99.90;;;;;;6240203;22;20354;-72
2021/11/28 00:35:08;;;;;;;29.50;12.93;;;4.60;99.90;;;;;;6238362;22;20108;-70
2021/11/28 00:37:34;;;;;;;31.88;14.07;;;4.50;99.90;;;;;;6239531;22;20381;-72
2021/11/28 00:40:00;;;;;;;28.05;13.05;;;4.50;99.90;;;;;;6239562;22;20039;-72
2021/11/28 00:42:25;;;;;;;28.20;12.18;;;4.50;99.90;;;;;;6240880;22;20004;-71
2021/11/28 00:44:51;;;;;;;27.65;11.93;;;4.50;99.90;;;;;;6239670;22;20012;-72
2021/11/28 00:47:18;;;;;;;30.52;12.30;;;4.60;99.90;;;;;;6237945;22;20350;-72
2021/11/28 00:52:28;;;;;;;25.15;11.90;;;4.60;99.90;;;;;;6240603;22;20051;-71
2021/11/28 00:54:54;;;;;;;30.20;13.73;;;4.60;99.90;;;;;;6239599;22;20401;-71
2021/11/28 00:57:20;;;;;;;32.70;14.15;;;4.50;99.90;;;;;;6239900;23;20078;-71
2021/11/28 00:59:45;;;;;;;30.60;12.27;;;4.60;99.90;;;;;;6240859;23;20039;-71
2021/11/28 01:02:11;;;;;;;24.98;12.32;;;4.60;99.90;;;;;;6238375;23;20472;-71
2021/11/28 01:04:38;;;;;;;29.48;12.27;;;4.60;99.90;;;;;;6240718;22;20008;-71
2021/11/28 01:07:03;;;;;;;30.40;13.73;;;4.60;99.90;;;;;;6211857;23;20044;-71
2021/11/28 01:09:29;;;;;;;29.98;12.45;;;4.60;99.90;;;;;;6213785;23;20007;-71
2021/11/28 01:11:55;;;;;;;30.40;12.68;;;4.60;99.90;;;;;;6240486;23;20015;-71
2021/11/28 01:14:21;;;;;;;31.40;12.65;;;4.60;99.90;;;;;;6239233;22;20000;-70
2021/11/28 01:16:46;;;;;;;34.15;14.18;;;4.60;99.90;;;;;;6240538;23;20442;-71
2021/11/28 01:19:12;;;;;;;33.20;13.38;;;4.60;99.90;;;;;;6237762;23;20357;-71
2021/11/28 01:21:49;;;;;;;31.00;13.80;;;4.60;99.90;;;;;;6213687;23;20439;-72
2021/11/28 01:24:14;;;;;;;35.42;14.25;;;4.50;99.90;;;;;;6212728;23;20012;-71
2021/11/28 01:26:40;;;;;;;31.42;13.13;;;4.50;99.90;;;;;;6240842;23;20012;-70
2021/11/28 01:29:05;;;;;;;34.35;13.95;;;4.50;99.90;;;;;;6239774;23;20454;-71
2021/11/28 01:31:31;;;;;;;29.35;12.50;;;4.60;99.90;;;;;;6240576;23;20008;-70
2021/11/28 01:33:56;;;;;;;32.20;13.63;;;4.50;99.90;;;;;;6240162;22;20012;-72
2021/11/28 01:36:22;;;;;;;32.70;14.73;;;4.60;99.90;;;;;;6212619;23;20065;-72
2021/11/28 01:38:48;;;;;;;31.55;14.23;;;4.50;99.90;;;;;;6214197;23;20087;-72
2021/11/28 01:41:14;;;;;;;28.17;12.43;;;4.50;99.90;;;;;;6239465;23;20050;-70
2021/11/28 01:43:39;;;;;;;41.67;16.35;;;4.50;99.90;;;;;;6240739;22;20015;-71
2021/11/28 01:46:05;;;;;;;32.72;13.88;;;4.50;99.90;;;;;;6238916;23;20020;-71
2021/11/28 01:48:31;;;;;;;33.15;14.55;;;4.50;99.90;;;;;;6240478;23;20034;-71
2021/11/28 01:50:56;;;;;;;30.80;13.95;;;4.50;99.90;;;;;;6237668;23;20008;-71
2021/11/28 01:53:25;;;;;;;32.03;13.95;;;4.50;99.90;;;;;;6240422;22;20054;-71
2021/11/28 01:55:52;;;;;;;33.42;15.05;;;4.50;99.90;;;;;;6213532;23;20051;-70
2021/11/28 01:58:18;;;;;;;31.75;12.90;;;4.50;99.90;;;;;;6239424;23;20016;-71
2021/11/28 02:00:51;;;;;;;28.38;12.38;;;4.50;99.90;;;;;;6213633;23;20031;-70
2021/11/28 02:03:18;;;;;;;31.55;15.18;;;4.50;99.90;;;;;;6238965;22;20011;-71
2021/11/28 02:05:47;;;;;;;33.80;14.32;;;4.50;99.90;;;;;;6240619;23;20837;-71
2021/11/28 02:08:13;;;;;;;32.85;13.48;;;4.50;99.90;;;;;;6213080;23;20020;-70
2021/11/28 02:10:39;;;;;;;33.67;14.73;;;4.60;99.90;;;;;;6215571;23;20097;-73
2021/11/28 02:13:05;;;;;;;36.72;15.15;;;4.50;99.90;;;;;;6213548;23;20012;-71
2021/11/28 02:15:31;;;;;;;34.10;13.23;;;4.50;99.90;;;;;;6216110;23;20004;-71
2021/11/28 02:17:57;;;;;;;34.05;15.13;;;4.50;99.90;;;;;;6243113;23;20472;-71
2021/11/28 02:20:26;;;;;;;32.80;13.45;;;4.60;99.90;;;;;;6244055;23;20012;-71
2021/11/28 02:22:52;;;;;;;33.95;13.63;;;4.60;99.90;;;;;;6244315;22;20009;-71
2021/11/28 02:25:18;;;;;;;32.35;13.82;;;4.60;99.90;;;;;;6242474;23;20008;-71
2021/11/28 02:27:44;;;;;;;31.10;12.90;;;4.50;99.90;;;;;;6217598;23;20536;-71
2021/11/28 02:30:13;;;;;;;32.30;13.52;;;4.50;99.90;;;;;;6243233;23;20780;-71
2021/11/28 02:32:39;;;;;;;30.77;14.20;;;4.50;99.90;;;;;;6217030;22;20016;-71
2021/11/28 02:35:05;;;;;;;28.55;12.85;;;4.50;99.90;;;;;;6215617;23;20012;-71
2021/11/28 02:37:31;;;;;;;35.10;13.55;;;4.60;99.90;;;;;;6217494;23;20020;-72
2021/11/28 02:39:58;;;;;;;29.40;12.65;;;4.50;99.90;;;;;;6216539;23;20046;-71
2021/11/28 02:42:25;;;;;;;35.75;14.15;;;4.50;99.90;;;;;;6216243;23;20091;-70
2021/11/28 02:44:51;;;;;;;28.55;12.77;;;4.50;99.90;;;;;;6216791;23;20567;-71
2021/11/28 02:47:16;;;;;;;35.80;13.65;;;4.60;99.90;;;;;;6215076;23;20016;-72
2021/11/28 02:49:42;;;;;;;34.03;13.23;;;4.60;99.90;;;;;;6244021;23;20434;-71
2021/11/28 02:52:12;;;;;;;30.88;12.90;;;4.60;99.90;;;;;;6242743;23;20016;-71
2021/11/28 02:54:38;;;;;;;29.38;12.60;;;4.60;99.90;;;;;;6244365;22;20008;-71
2021/11/28 02:57:07;;;;;;;32.65;13.70;;;4.60;99.90;;;;;;6241895;23;20004;-71
2021/11/28 02:59:33;;;;;;;36.50;14.45;;;4.60;99.90;;;;;;6243823;23;20091;-70
2021/11/28 03:01:59;;;;;;;32.85;12.98;;;4.60;99.90;;;;;;6240848;23;20032;-72
2021/11/28 03:04:24;;;;;;;39.53;15.70;;;4.60;99.90;;;;;;6209573;23;20004;-71
2021/11/28 03:06:50;;;;;;;35.25;13.57;;;4.60;99.90;;;;;;6243507;23;20004;-71
2021/11/28 03:09:16;;;;;;;32.35;14.15;;;4.60;99.90;;;;;;6215343;23;20044;-71
2021/11/28 03:11:41;;;;;;;30.30;13.57;;;4.60;99.90;;;;;;6243576;23;20130;-71
2021/11/28 03:14:07;;;;;;;29.88;12.73;;;4.60;99.90;;;;;;6214892;23;20173;-71
2021/11/28 03:16:32;;;;;;;32.40;14.00;;;4.70;99.90;;;;;;6216603;23;20636;-71
2021/11/28 03:18:58;;;;;;;33.63;14.05;;;4.60;99.90;;;;;;6216128;23;20019;-71
2021/11/28 03:21:30;;;;;;;36.42;14.30;;;4.70;99.90;;;;;;6215435;23;20012;-70
2021/11/28 03:23:58;;;;;;;40.13;15.63;;;4.70;99.90;;;;;;6241537;22;20016;-71
2021/11/28 03:26:27;;;;;;;41.42;15.90;;;4.70;99.90;;;;;;6241316;23;20005;-71
2021/11/28 03:28:56;;;;;;;37.88;14.60;;;4.70;99.90;;;;;;6214740;23;20070;-71
2021/11/28 03:31:24;;;;;;;41.17;14.80;;;4.70;99.90;;;;;;6241487;22;20066;-71
2021/11/28 03:33:49;;;;;;;35.60;14.88;;;4.70;99.90;;;;;;6242540;22;20438;-71
2021/11/28 03:36:19;;;;;;;31.08;13.13;;;4.70;99.90;;;;;;6239093;22;20069;-71
2021/11/28 03:38:45;;;;;;;36.57;14.77;;;4.60;99.90;;;;;;6240798;22;20012;-71
2021/11/28 03:41:11;;;;;;;35.92;14.43;;;4.60;99.90;;;;;;6239163;22;20086;-71
2021/11/28 03:43:38;;;;;;;36.53;14.32;;;4.40;99.90;;;;;;6239857;22;20101;-71
2021/11/28 03:46:04;;;;;;;35.95;15.13;;;4.40;99.90;;;;;;6240912;22;20016;-71
2021/11/28 03:48:30;;;;;;;36.22;15.27;;;4.30;99.90;;;;;;6240188;22;20043;-71
2021/11/28 03:50:56;;;;;;;32.53;13.77;;;4.20;99.90;;;;;;6239648;22;20027;-71
2021/11/28 03:53:21;;;;;;;36.20;15.38;;;4.20;99.90;;;;;;6238883;22;20442;-71
2021/11/28 03:55:48;;;;;;;36.20;14.93;;;4.20;99.90;;;;;;6241456;22;20027;-71
2021/11/28 03:58:14;;;;;;;35.40;15.25;;;4.30;99.90;;;;;;6240467;22;20454;-71
2021/11/28 04:00:40;;;;;;;38.13;13.98;;;4.30;99.90;;;;;;6240428;22;20038;-71
2021/11/28 04:03:08;;;;;;;38.28;14.07;;;4.20;99.90;;;;;;6239357;22;20442;-72
2021/11/28 04:05:34;;;;;;;36.13;14.30;;;4.20;99.90;;;;;;6240121;22;20111;-71
2021/11/28 04:07:59;;;;;;;34.17;13.77;;;4.20;99.90;;;;;;6239811;22;20028;-71
2021/11/28 04:10:25;;;;;;;35.80;15.13;;;4.10;99.90;;;;;;6240854;22;20058;-71
2021/11/28 04:12:51;;;;;;;39.33;15.23;;;4.10;99.90;;;;;;6241933;22;20008;-71
2021/11/28 04:15:17;;;;;;;34.50;14.02;;;4.00;99.90;;;;;;6240670;22;20087;-73
2021/11/28 04:17:42;;;;;;;35.72;13.98;;;3.90;99.90;;;;;;6241804;22;20039;-73
2021/11/28 04:20:10;;;;;;;36.10;14.40;;;3.90;99.90;;;;;;6241085;22;20008;-71
2021/11/28 04:22:35;;;;;;;37.35;14.38;;;3.80;99.90;;;;;;6239975;22;20012;-71
2021/11/28 04:25:04;;;;;;;38.92;15.27;;;3.80;99.90;;;;;;6240476;22;20018;-72
2021/11/28 04:27:30;;;;;;;52.72;20.27;;;3.80;99.90;;;;;;6241531;22;20023;-71
2021/11/28 04:29:56;;;;;;;51.60;18.88;;;3.80;99.90;;;;;;6241813;22;20008;-71
2021/11/28 04:32:21;;;;;;;55.08;21.38;;;3.90;99.90;;;;;;6241118;23;20026;-71
2021/11/28 04:34:47;;;;;;;47.85;19.40;;;3.90;99.90;;;;;;6214266;23;20012;-71
2021/11/28 04:37:12;;;;;;;44.55;16.08;;;3.90;99.90;;;;;;6238340;23;20027;-71
2021/11/28 04:39:38;;;;;;;40.85;15.77;;;3.90;99.90;;;;;;6213763;23;20016;-71
2021/11/28 04:42:05;;;;;;;40.55;15.20;;;4.00;99.90;;;;;;6240515;23;20016;-72
2021/11/28 04:44:31;;;;;;;34.88;14.65;;;4.00;99.90;;;;;;6214303;23;20018;-71
2021/11/28 04:46:57;;;;;;;41.88;16.02;;;4.10;99.90;;;;;;6213523;23;20016;-72
2021/11/28 04:49:23;;;;;;;35.97;14.77;;;4.10;99.90;;;;;;6214039;23;20454;-71
2021/11/28 04:51:50;;;;;;;38.40;15.10;;;4.10;99.90;;;;;;6214261;23;20008;-71
2021/11/28 04:54:16;;;;;;;37.28;14.90;;;4.10;99.90;;;;;;6239572;22;20008;-71
2021/11/28 04:56:42;;;;;;;33.35;13.23;;;4.10;99.90;;;;;;6213797;23;20034;-72
2021/11/28 04:59:08;;;;;;;35.65;14.68;;;4.10;99.90;;;;;;6240358;23;20012;-71
2021/11/28 05:01:33;;;;;;;32.58;13.00;;;4.00;99.90;;;;;;6214810;23;20016;-72
2021/11/28 05:03:59;;;;;;;37.90;15.07;;;4.00;99.90;;;;;;6240514;22;20016;-71
2021/11/28 05:06:25;;;;;;;30.35;12.63;;;3.90;99.90;;;;;;6240238;23;20036;-71
2021/11/28 05:08:51;;;;;;;38.75;13.95;;;3.80;99.90;;;;;;6213831;23;20043;-72
2021/11/28 05:11:16;;;;;;;31.25;13.43;;;3.70;99.90;;;;;;6240453;23;20013;-73
2021/11/28 05:13:42;;;;;;;34.80;13.52;;;3.70;99.90;;;;;;6241599;22;20012;-71
2021/11/28 05:16:07;;;;;;;37.22;14.57;;;3.60;99.90;;;;;;6237931;23;20017;-71
2021/11/28 05:18:33;;;;;;;34.15;12.77;;;3.60;99.90;;;;;;6214944;23;20019;-71
2021/11/28 05:20:59;;;;;;;32.97;12.93;;;3.60;99.90;;;;;;6241293;23;20012;-71
2021/11/28 05:23:24;;;;;;;31.02;13.25;;;3.50;99.90;;;;;;6240741;22;20032;-71
2021/11/28 05:25:50;;;;;;;35.75;13.50;;;3.40;99.90;;;;;;6213555;23;20083;-71
2021/11/28 05:28:15;;;;;;;28.67;12.38;;;3.40;99.90;;;;;;6240715;23;20111;-71
2021/11/28 05:30:41;;;;;;;32.13;13.15;;;3.30;99.90;;;;;;6214417;23;20015;-71
2021/11/28 05:33:07;;;;;;;35.70;13.70;;;3.30;99.90;;;;;;6240919;22;20053;-71
2021/11/28 05:35:33;;;;;;;32.05;11.43;;;3.20;99.90;;;;;;6240601;23;20339;-71
2021/11/28 05:37:58;;;;;;;29.17;13.50;;;3.20;99.90;;;;;;6240338;23;20024;-71
2021/11/28 05:40:24;;;;;;;36.50;13.65;;;3.20;99.90;;;;;;6240374;23;20004;-71
2021/11/28 05:42:52;;;;;;;37.50;14.20;;;3.10;99.90;;;;;;6214835;22;20438;-71
2021/11/28 05:45:20;;;;;;;30.70;13.38;;;3.10;99.90;;;;;;6239192;23;20012;-71
2021/11/28 05:47:46;;;;;;;31.30;12.55;;;3.00;99.90;;;;;;6241260;23;20369;-71
2021/11/28 05:50:13;;;;;;;29.83;12.63;;;3.10;99.90;;;;;;6212633;23;20012;-71
2021/11/28 05:52:40;;;;;;;28.60;12.52;;;3.00;99.90;;;;;;6240447;22;20075;-71
2021/11/28 05:55:06;;;;;;;34.45;12.77;;;3.00;99.90;;;;;;6238835;23;20460;-71
2021/11/28 05:57:31;;;;;;;26.77;12.05;;;2.90;99.90;;;;;;6240552;23;20450;-71
2021/11/28 05:59:57;;;;;;;29.55;11.40;;;2.90;99.90;;;;;;6239762;23;20014;-72
2021/11/28 06:02:22;;;;;;;35.88;12.73;;;2.90;99.90;;;;;;6239790;23;20327;-71
2021/11/28 06:04:49;;;;;;;27.80;10.63;;;2.80;99.90;;;;;;6212398;23;20012;-71
2021/11/28 06:07:15;;;;;;;28.83;12.18;;;2.80;99.90;;;;;;6212194;23;20088;-70
2021/11/28 06:09:40;;;;;;;29.45;11.63;;;2.80;99.90;;;;;;6241095;23;20465;-71
2021/11/28 06:12:06;;;;;;;27.05;11.63;;;2.70;99.90;;;;;;6239453;23;20012;-70
2021/11/28 06:14:32;;;;;;;26.58;10.75;;;2.70;99.90;;;;;;6211662;23;20338;-71
2021/11/28 06:16:58;;;;;;;26.95;11.60;;;2.70;99.90;;;;;;6238642;23;20010;-71
2021/11/28 06:19:23;;;;;;;26.00;10.48;;;2.70;99.90;;;;;;6239784;23;20500;-71
2021/11/28 06:21:49;;;;;;;27.42;10.68;;;2.70;99.90;;;;;;6238450;23;20009;-71
2021/11/28 06:24:15;;;;;;;28.65;10.18;;;2.60;99.90;;;;;;6239094;22;20005;-71
2021/11/28 06:26:41;;;;;;;32.75;12.05;;;2.60;99.90;;;;;;6213167;23;20342;-71
2021/11/28 06:29:07;;;;;;;28.35;11.43;;;2.60;99.90;;;;;;6239531;23;20023;-71
2021/11/28 06:31:32;;;;;;;23.05;10.10;;;2.60;99.90;;;;;;6213356;23;20015;-71
2021/11/28 06:33:58;;;;;;;36.58;12.68;;;2.50;99.90;;;;;;6239671;22;20509;-72
2021/11/28 06:36:24;;;;;;;27.65;10.82;;;2.60;99.90;;;;;;6238539;23;20014;-71
2021/11/28 06:38:49;;;;;;;25.20;11.13;;;2.60;99.90;;;;;;6213335;23;20004;-71
2021/11/28 06:41:15;;;;;;;27.92;11.10;;;2.60;99.90;;;;;;6239103;23;20008;-71
2021/11/28 06:43:42;;;;;;;24.65;9.63;;;2.60;99.90;;;;;;6213017;23;20012;-70
2021/11/28 06:46:07;;;;;;;28.58;10.82;;;2.60;99.90;;;;;;6238509;23;20413;-71
2021/11/28 06:48:33;;;;;;;30.00;11.85;;;2.50;99.90;;;;;;6212907;23;20012;-71
2021/11/28 06:50:59;;;;;;;24.73;9.30;;;2.50;99.90;;;;;;6239061;23;20037;-72
2021/11/28 06:53:24;;;;;;;23.67;9.75;;;2.50;99.90;;;;;;6212321;23;20069;-71
2021/11/28 06:55:50;;;;;;;24.35;9.75;;;2.50;99.90;;;;;;6212804;23;20062;-71
2021/11/28 06:58:16;;;;;;;24.45;9.52;;;2.60;99.90;;;;;;6212112;23;20010;-71
2021/11/28 07:00:42;;;;;;;24.63;9.43;;;2.60;99.90;;;;;;6240859;23;20012;-71
2021/11/28 07:03:08;;;;;;;23.05;10.07;;;2.70;99.90;;;;;;6213712;23;20012;-71
2021/11/28 07:05:33;;;;;;;21.45;9.40;;;2.70;99.90;;;;;;6214343;23;20407;-71
2021/11/28 07:07:59;;;;;;;25.10;9.52;;;2.70;99.90;;;;;;6241083;23;20373;-71
2021/11/28 07:10:25;;;;;;;23.27;8.88;;;2.80;99.90;;;;;;6243685;23;20338;-72
2021/11/28 07:12:50;;;;;;;21.58;9.52;;;2.70;99.90;;;;;;6218029;22;20020;-71
2021/11/28 07:15:16;;;;;;;23.35;9.18;;;2.70;99.90;;;;;;6242033;23;20016;-71
2021/11/28 07:17:42;;;;;;;23.05;9.20;;;2.70;99.90;;;;;;6243323;23;20016;-71
2021/11/28 07:20:08;;;;;;;21.48;9.75;;;2.70;99.90;;;;;;6241214;23;20015;-72
2021/11/28 07:22:33;;;;;;;18.77;8.60;;;2.70;99.90;;;;;;6241620;23;20448;-71
2021/11/28 07:25:00;;;;;;;19.13;8.60;;;2.70;99.90;;;;;;6214905;23;20083;-72
2021/11/28 07:27:25;;;;;;;21.73;9.05;;;2.70;99.90;;;;;;6213447;23;20004;-71
2021/11/28 07:29:51;;;;;;;19.70;9.80;;;2.60;99.90;;;;;;6242119;23;20020;-71
2021/11/28 07:32:17;;;;;;;22.20;9.15;;;2.60;99.90;;;;;;6240496;23;20008;-71
2021/11/28 07:34:43;;;;;;;22.40;8.90;;;2.60;99.90;;;;;;6214364;23;20039;-71
2021/11/28 07:37:09;;;;;;;22.77;9.25;;;2.60;99.90;;;;;;6213625;23;20015;-72
2021/11/28 07:39:35;;;;;;;20.73;9.18;;;2.60;99.90;;;;;;6242004;23;20000;-71
2021/11/28 07:42:00;;;;;;;20.73;8.70;;;2.70;99.90;;;;;;6214195;23;20085;-71
2021/11/28 07:44:26;;;;;;;20.52;8.77;;;2.70;99.90;;;;;;6214353;23;20019;-71
2021/11/28 07:46:52;;;;;;;24.15;9.63;;;2.70;99.90;;;;;;6241750;23;20004;-71
2021/11/28 07:49:18;;;;;;;19.73;8.80;;;2.70;99.90;;;;;;6210933;23;20023;-71
2021/11/28 07:51:44;;;;;;;24.27;9.80;;;2.80;99.90;;;;;;6241982;23;20013;-71
2021/11/28 07:54:09;;;;;;;25.77;9.90;;;2.80;99.90;;;;;;6234301;22;20115;-70
2021/11/28 07:56:35;;;;;;;19.15;8.88;;;2.90;99.90;;;;;;6213845;23;20031;-71
2021/11/28 07:59:01;;;;;;;18.50;8.93;;;2.90;99.90;;;;;;6240822;23;20040;-70
2021/11/28 08:01:27;;;;;;;18.45;8.95;;;3.00;99.90;;;;;;6213952;23;20012;-71
2021/11/28 08:03:52;;;;;;;22.15;9.13;;;3.10;99.90;;;;;;6241308;22;20407;-73
2021/11/28 08:06:18;;;;;;;20.10;8.80;;;3.20;99.90;;;;;;6239454;23;20009;-74
2021/11/28 08:08:44;;;;;;;22.60;10.02;;;3.30;99.90;;;;;;6235941;23;20454;-73
2021/11/28 08:11:09;;;;;;;21.95;8.50;;;3.40;99.90;;;;;;6238561;23;20342;-70
2021/11/28 08:13:36;;;;;;;23.88;9.98;;;3.50;99.90;;;;;;6212539;23;20016;-71
2021/11/28 08:16:01;;;;;;;19.17;9.23;;;3.60;99.90;;;;;;6212381;23;20015;-72
2021/11/28 08:18:27;;;;;;;26.52;10.27;;;3.70;99.90;;;;;;6212379;23;20516;-70
2021/11/28 08:20:53;;;;;;;18.92;8.70;;;3.70;99.90;;;;;;6214186;23;20043;-71
2021/11/28 08:23:18;;;;;;;19.40;9.48;;;3.80;99.90;;;;;;6212235;23;20023;-70
2021/11/28 08:25:44;;;;;;;17.70;8.57;;;3.80;99.90;;;;;;6240123;23;20008;-71
2021/11/28 08:28:10;;;;;;;21.73;9.15;;;3.90;99.90;;;;;;6238600;23;20040;-70
2021/11/28 08:30:37;;;;;;;17.80;8.45;;;4.00;99.90;;;;;;6240519;23;20050;-70
2021/11/28 08:33:05;;;;;;;23.20;8.85;;;4.00;99.90;;;;;;6239239;22;20542;-72
2021/11/28 08:35:31;;;;;;;19.25;9.15;;;4.10;99.90;;;;;;6239939;23;20075;-71
2021/11/28 08:37:57;;;;;;;21.60;9.90;;;4.10;99.90;;;;;;6212454;23;20040;-71
2021/11/28 08:40:24;;;;;;;22.70;9.32;;;4.20;99.90;;;;;;6239465;23;20043;-71
2021/11/28 08:42:50;;;;;;;21.65;9.18;;;4.20;99.90;;;;;;6239792;22;20012;-71
2021/11/28 08:45:18;;;;;;;22.63;9.48;;;4.30;99.90;;;;;;6238367;23;20099;-71
2021/11/28 08:47:45;;;;;;;24.42;9.93;;;4.30;99.90;;;;;;6240230;23;20020;-71
2021/11/28 08:50:14;;;;;;;21.15;9.85;;;4.30;99.90;;;;;;6211964;23;20016;-71
2021/11/28 08:52:40;;;;;;;23.52;9.82;;;4.30;99.90;;;;;;6240116;22;20024;-71
2021/11/28 08:55:07;;;;;;;21.50;9.70;;;4.30;99.90;;;;;;6239129;23;20046;-70
2021/11/28 08:57:32;;;;;;;21.63;10.25;;;4.40;99.90;;;;;;6212526;23;20086;-70
2021/11/28 08:59:58;;;;;;;26.27;10.77;;;4.50;99.90;;;;;;6240123;23;20105;-71
2021/11/28 09:02:23;;;;;;;22.17;10.68;;;4.50;99.90;;;;;;6239637;22;20001;-72
2021/11/28 09:04:50;;;;;;;20.20;9.65;;;4.60;99.90;;;;;;6240153;22;20001;-72
2021/11/28 09:07:16;;;;;;;22.63;9.85;;;4.70;99.90;;;;;;6238370;22;20042;-71
2021/11/28 09:09:42;;;;;;;21.70;10.07;;;4.70;99.90;;;;;;6238660;22;20019;-71
2021/11/28 09:12:08;;;;;;;21.42;10.27;;;4.80;99.90;;;;;;6239140;22;20084;-72
2021/11/28 09:14:33;;;;;;;27.10;10.50;;;4.80;99.90;;;;;;6232858;22;20004;-71
2021/11/28 09:16:59;;;;;;;21.38;9.68;;;4.80;99.90;;;;;;6233216;22;20031;-72
2021/11/28 09:19:41;;;;;;;28.27;9.73;;;4.90;99.90;;;;;;6234319;22;20016;-70
2021/11/28 09:22:09;;;;;;;20.92;9.60;;;4.80;99.90;;;;;;6236291;22;20570;-70
2021/11/28 09:24:38;;;;;;;20.73;8.75;;;4.90;99.90;;;;;;6213808;22;20399;-63
2021/11/28 09:27:12;;;;;;;17.35;8.50;;;4.80;99.90;;;;;;6215045;22;20023;-63
2021/11/28 09:29:40;;;;;;;25.60;8.55;;;4.80;99.90;;;;;;6207067;22;20040;-63
2021/11/28 09:32:07;;;;;;;15.68;8.32;;;4.80;99.90;;;;;;6206487;23;20027;-62
2021/11/28 09:34:33;;;;;;;18.08;8.50;;;4.90;99.90;;;;;;6205087;23;20001;-62
2021/11/28 09:36:59;;;;;;;18.25;8.05;;;4.90;99.90;;;;;;6207334;23;20096;-61
2021/11/28 09:39:25;;;;;;;14.45;6.63;;;5.00;99.90;;;;;;6206162;23;20039;-62
2021/11/28 09:41:56;;;;;;;14.65;7.00;;;5.00;99.90;;;;;;6207806;23;20009;-61
2021/11/28 09:44:23;;;;;;;16.67;6.10;;;5.00;99.90;;;;;;6188732;23;20009;-62
2021/11/28 09:46:50;;;;;;;17.52;7.13;;;5.00;99.90;;;;;;6177470;23;20017;-62
2021/11/28 09:49:17;;;;;;;12.50;6.55;;;4.90;99.90;;;;;;6175809;23;20021;-61
2021/11/28 09:51:45;;;;;;;12.48;5.80;;;4.90;99.90;;;;;;6177602;23;20514;-62
2021/11/28 09:54:15;;;;;;;10.80;5.38;;;4.90;99.90;;;;;;6175792;23;20021;-61
2021/11/28 09:56:41;;;;;;;11.48;4.70;;;4.90;99.90;;;;;;6177195;23;20019;-63
2021/11/28 09:59:09;;;;;;;9.27;4.15;;;4.90;99.90;;;;;;6175936;23;20044;-63
2021/11/28 10:01:36;;;;;;;6.38;3.00;;;5.00;99.90;;;;;;6177389;23;20515;-62
2021/11/28 10:04:02;;;;;;;2.00;0.93;;;5.00;99.90;;;;;;6176917;23;20045;-62
2021/11/28 10:06:29;;;;;;;1.67;0.50;;;5.00;99.90;;;;;;6177580;23;20020;-62
2021/11/28 10:08:56;;;;;;;0.30;0.10;;;5.00;99.90;;;;;;6178159;23;20092;-63
2021/11/28 10:11:41;;;;;;;0.45;0.20;;;4.90;99.90;;;;;;6176143;23;20009;-62
2021/11/28 10:14:15;;;;;;;1.08;0.10;;;4.90;99.90;;;;;;6177286;23;20020;-62
2021/11/28 10:16:41;;;;;;;0.60;0.00;;;4.90;99.90;;;;;;6177034;23;20013;-64
2021/11/28 10:19:08;;;;;;;0.20;0.00;;;4.80;99.90;;;;;;6176607;23;20068;-62
2021/11/28 10:21:34;;;;;;;4.32;0.15;;;4.80;99.90;;;;;;6178557;23;20052;-62
2021/11/28 10:24:08;;;;;;;0.52;0.00;;;4.70;99.90;;;;;;6179277;23;20029;-64
2021/11/28 10:26:52;;;;;;;1.95;0.00;;;4.80;99.90;;;;;;6180136;23;20013;-62
2021/11/28 10:29:17;;;;;;;2.50;0.40;;;4.80;99.90;;;;;;6179481;23;20430;-62
2021/11/28 10:31:47;;;;;;;0.63;0.10;;;4.80;99.90;;;;;;6180440;23;20017;-61
2021/11/28 10:34:15;;;;;;;0.80;0.08;;;4.80;99.90;;;;;;6180039;23;20017;-63
2021/11/28 10:36:41;;;;;;;1.08;0.10;;;4.90;99.90;;;;;;6181566;23;20397;-62
2021/11/28 10:39:51;;;;;;;0.40;0.10;;;4.90;99.90;;;;;;6183226;23;20037;-61
2021/11/28 10:42:22;;;;;;;;;;;4.90;99.90;;;;;;6183578;23;20005;-61
2021/11/28 10:45:08;;;;;;;0.20;0.00;;;4.90;99.90;;;;;;6185185;23;19908;-62
2021/11/28 10:47:34;;;;;;;1.33;0.10;;;4.90;99.90;;;;;;6186678;23;20079;-63
2021/11/28 10:50:13;;;;;;;0.10;0.00;;;4.90;99.90;;;;;;6183540;23;20340;-62
2021/11/28 10:52:41;;;;;;;0.20;0.00;;;4.90;99.90;;;;;;6181813;23;20005;-62
2021/11/28 10:55:27;;;;;;;0.85;0.00;;;4.90;99.90;;;;;;6181367;23;20080;-62
2021/11/28 10:58:14;;;;;;;0.57;0.00;;;4.90;99.90;;;;;;6180909;23;20347;-63
2021/11/28 11:01:07;;;;;;;1.52;0.20;;;4.90;99.90;;;;;;6181614;23;20013;-62
2021/11/28 11:03:38;;;;;;;0.77;0.10;;;4.90;99.90;;;;;;6181485;23;20343;-63
2021/11/28 11:06:24;;;;;;;0.43;0.05;;;4.90;99.90;;;;;;6181304;23;20020;-62
2021/11/28 11:09:11;;;;;;;0.30;0.00;;;4.90;99.90;;;;;;6182091;23;20060;-62
2021/11/28 11:11:37;;;;;;;0.08;0.00;;;4.90;99.90;;;;;;6211520;23;20092;-62
2021/11/28 11:14:04;;;;;;;1.27;0.03;;;4.90;99.90;;;;;;6211645;23;20430;-62
2021/11/28 11:16:40;;;;;;;2.05;0.10;;;4.90;99.90;;;;;;6211876;23;20005;-62
2021/11/28 11:19:28;;;;;;;0.55;0.00;;;5.00;99.90;;;;;;6211630;23;20013;-63
2021/11/28 11:22:14;;;;;;;0.30;0.10;;;5.00;99.90;;;;;;6212059;23;20074;-63
2021/11/28 11:24:41;;;;;;;4.05;0.43;;;5.10;99.90;;;;;;6209971;23;20032;-63
2021/11/28 11:27:13;;;;;;;1.48;0.10;;;5.00;99.90;;;;;;6211262;23;20016;-62
2021/11/28 11:29:41;;;;;;;4.57;1.15;;;5.10;99.90;;;;;;6209995;23;20020;-63
2021/11/28 11:32:12;;;;;;;0.40;0.17;;;5.10;99.90;;;;;;6209659;23;20523;-61
2021/11/28 11:34:40;;;;;;;3.13;0.20;;;5.10;99.90;;;;;;6211897;23;20012;-61
2021/11/28 11:37:12;;;;;;;0.80;0.10;;;5.00;99.90;;;;;;6211453;23;20016;-62
2021/11/28 11:39:38;;;;;;;0.57;0.10;;;5.10;99.90;;;;;;6211579;23;20016;-63
2021/11/28 11:42:04;;;;;;;1.65;0.32;;;5.00;99.90;;;;;;6211005;23;20020;-62
2021/11/28 11:44:30;;;;;;;2.88;0.22;;;5.00;99.90;;;;;;6211902;23;20012;-63
2021/11/28 11:46:57;;;;;;;0.00;0.00;;;4.80;99.90;;;;;;6210706;23;20037;-63
2021/11/28 11:49:24;;;;;;;0.00;0.00;;;4.70;99.90;;;;;;6210717;23;20016;-63
2021/11/28 11:51:50;;;;;;;1.42;0.10;;;4.60;99.90;;;;;;6211882;23;20012;-62
2021/11/28 11:54:25;;;;;;;0.85;0.10;;;4.50;99.90;;;;;;6211425;23;20103;-62
2021/11/28 11:57:03;;;;;;;0.47;0.00;;;4.40;99.90;;;;;;6211324;23;20021;-61
2021/11/28 11:59:35;;;;;;;0.50;0.08;;;4.40;99.90;;;;;;6211104;23;20008;-62
2021/11/28 12:02:04;;;;;;;3.92;1.25;;;4.40;99.90;;;;;;6209387;23;20727;-64
2021/11/28 12:04:47;;;;;;;1.65;0.10;;;4.40;99.90;;;;;;6212019;23;20012;-61
2021/11/28 12:07:13;;;;;;;1.08;0.20;;;4.40;99.90;;;;;;6210406;23;20522;-61
2021/11/28 12:09:39;;;;;;;4.50;0.28;;;4.40;99.90;;;;;;6207970;23;20027;-61
2021/11/28 12:12:12;;;;;;;2.60;0.10;;;4.40;99.90;;;;;;6206560;23;20011;-63
2021/11/28 12:15:17;;;;;;;0.40;0.10;;;4.40;99.90;;;;;;6207692;23;20015;-62
2021/11/28 12:17:42;;;;;;;0.00;0.00;;;4.50;99.90;;;;;;6206312;23;20578;-61
2021/11/28 12:20:08;;;;;;;0.28;0.00;;;4.50;99.90;;;;;;6207407;23;20055;-63
2021/11/28 12:22:38;;;;;;;0.55;0.20;;;4.50;99.90;;;;;;6208405;23;20033;-61
2021/11/28 12:25:41;;;;;;;0.20;0.00;;;4.50;99.90;;;;;;6206848;23;20755;-62
2021/11/28 12:28:27;;;;;;;0.20;0.00;;;4.50;99.90;;;;;;6207168;23;20450;-62
2021/11/28 12:30:54;;;;;;;1.35;0.13;;;4.60;99.90;;;;;;6207155;23;20020;-62
2021/11/28 12:33:49;;;;;;;0.98;0.03;;;4.50;99.90;;;;;;6208183;23;20032;-62
2021/11/28 12:36:39;;;;;;;1.50;0.10;;;4.60;99.90;;;;;;6204603;23;20020;-62
2021/11/28 12:39:16;;;;;;;0.90;0.10;;;4.60;99.90;;;;;;6206573;23;20016;-63
2021/11/28 12:41:57;;;;;;;0.70;0.20;;;4.60;99.90;;;;;;6207125;23;20086;-61
2021/11/28 12:44:48;;;;;;;0.50;0.10;;;4.60;99.90;;;;;;6204757;23;20009;-63
2021/11/28 12:47:13;;;;;;;;;;;4.60;99.90;;;;;;6206677;23;20051;-62
2021/11/28 12:50:00;;;;;;;1.60;0.50;;;4.60;99.90;;;;;;6206416;23;20245;-62
2021/11/28 12:52:26;;;;;;;2.70;0.50;;;4.70;99.90;;;;;;6206721;23;20020;-63
2021/11/28 12:55:07;;;;;;;2.63;0.55;;;4.70;99.90;;;;;;6206279;23;20016;-62